GW0143 Weather Reports


Display with metric or nautical units.
time (UTC)temp
F
wind
direction
speed
MPH
gust
MPH
rain 1hr
in
rain 24hr
in
rain mn
in
humidity
%
barometer
mb
20240622183524 71 113 3.0 4.0 0.00 0.21 0.00 36
20240622182518 71 190 4.0 8.0 0.00 0.21 0.00 36
20240622181518 71 186 3.0 6.0 0.00 0.21 0.00 37
20240622180519 70 169 4.0 7.0 0.00 0.21 0.00 39
20240622175518 69 178 6.0 11.0 0.00 0.21 0.00 45
20240622174518 69 157 5.0 10.0 0.00 0.21 0.00 47
20240622173539 68 161 6.0 11.0 0.00 0.21 0.00 50
20240622172519 68 180 5.0 6.0 0.00 0.21 0.00 47
20240622171519 68 188 4.0 9.0 0.00 0.21 0.00 50
20240622170539 67 167 5.0 8.0 0.00 0.21 0.00 50
20240622165519 66 192 6.0 8.0 0.00 0.21 0.00 50
20240622164520 66 184 5.0 7.0 0.00 0.21 0.00 50
20240622163520 65 197 5.0 8.0 0.00 0.21 0.00 51
20240622162521 65 194 6.0 9.0 0.00 0.21 0.00 52
20240622161521 65 208 6.0 8.0 0.00 0.21 0.00 56
20240622160541 64 202 6.0 9.0 0.00 0.21 0.00 58
20240622155521 64 207 6.0 8.0 0.00 0.21 0.00 59
20240622154521 63 203 7.0 9.0 0.00 0.21 0.00 60
20240622153521 63 195 6.0 9.0 0.00 0.21 0.00 62
20240622152521 63 206 6.0 9.0 0.00 0.21 0.00 64
20240622151522 63 204 6.0 8.0 0.00 0.21 0.00 62
20240622150522 63 197 6.0 9.0 0.00 0.21 0.00 59
20240622145516 63 178 7.0 10.0 0.00 0.21 0.00 58
20240622144522 63 182 7.0 9.0 0.00 0.21 0.00 61
20240622143522 61 171 6.0 9.0 0.00 0.21 0.00 64
20240622142523 60 167 7.0 9.0 0.00 0.21 0.00 69
20240622141523 59 171 7.0 9.0 0.00 0.21 0.00 71
20240622140517 58 150 6.0 9.0 0.00 0.21 0.00 70
20240622135517 58 149 5.0 8.0 0.00 0.21 0.00 72
20240622134517 58 162 8.0 10.0 0.00 0.21 0.00 70
20240622133517 57 174 7.0 10.0 0.00 0.21 0.00 71
20240622132517 56 185 6.0 9.0 0.00 0.21 0.00 72
20240622131518 56 169 8.0 11.0 0.00 0.21 0.00 74
20240622130518 55 159 7.0 9.0 0.00 0.21 0.00 75
20240622125518 55 157 7.0 9.0 0.00 0.21 0.00 75
20240622124519 55 154 7.0 10.0 0.00 0.21 0.00 73
20240622123518 54 158 8.0 10.0 0.00 0.21 0.00 75
20240622122519 54 151 8.0 10.0 0.00 0.21 0.00 76
20240622121519 54 161 8.0 9.0 0.00 0.21 0.00 75
20240622120539 53 157 8.0 10.0 0.00 0.21 0.00 76
20240622115519 54 159 8.0 10.0 0.00 0.21 0.00 76
20240622114519 55 164 9.0 11.0 0.00 0.21 0.00 72
20240622113519 56 210 5.0 9.0 0.00 0.21 0.00 70
20240622112537 54 171 8.0 12.0 0.00 0.21 0.00 72
20240622111517 54 149 9.0 11.0 0.00 0.21 0.00 75
20240622110520 54 171 6.0 9.0 0.00 0.24 0.00 74
20240622105521 54 151 7.0 10.0 0.00 0.25 0.00 74
20240622104517 54 150 9.0 11.0 0.00 0.25 0.00 74
20240622103518 55 146 8.0 11.0 0.00 0.27 0.00 73
20240622102518 56 151 8.0 11.0 0.00 0.28 0.00 71
20240622101524 56 151 6.0 11.0 0.00 0.29 0.00 67
20240622100518 56 150 8.0 11.0 0.00 0.30 0.00 69
20240622095519 56 147 8.0 10.0 0.00 0.30 0.00 69
20240622094519 56 155 8.0 11.0 0.00 0.31 0.00 71
20240622093539 56 169 10.0 15.0 0.00 0.33 0.00 71
20240622092519 55 170 8.0 13.0 0.00 0.34 0.00 71
20240622091516 55 151 8.0 10.0 0.00 0.35 0.00 75
20240622090520 55 159 8.0 11.0 0.00 0.35 0.00 72
20240622085542 55 211 4.0 7.0 0.00 0.35 0.00 73
20240622084520 56 175 8.0 12.0 0.00 0.36 0.00 71
20240622083537 56 203 7.0 12.0 0.00 0.38 0.00 66
20240622082517 55 193 7.0 12.0 0.00 0.38 0.00 72
20240622081517 56 181 9.0 15.0 0.00 0.38 0.00 70
20240622080524 55 157 6.0 9.0 0.00 0.38 0.00 72
20240622075518 56 147 6.0 9.0 0.00 0.38 0.00 71
20240622074518 55 150 6.0 8.0 0.00 0.38 0.00 72
20240622073518 56 158 5.0 9.0 0.00 0.38 0.00 72
20240622072518 55 147 6.0 9.0 0.00 0.38 0.00 73
20240622071544 56 158 3.0 5.0 0.00 0.38 0.00 70
20240622070518 56 168 9.0 13.0 0.00 0.38 0.00 70
20240622065539 57 155 5.0 8.0 0.00 0.38 0.00 69
20240622064539 57 240 3.0 8.0 0.00 0.38 0.00 59
20240622063519 55 133 4.0 8.0 0.00 0.38 0.00 76
20240622062519 55 128 4.0 7.0 0.00 0.38 0.00 74
20240622061519 56 76 4.0 8.0 0.00 0.38 0.00 72
20240622060519 56 232 6.0 9.0 0.00 0.38 0.00 70
20240622055519 55 210 5.0 9.0 0.00 0.38 0.38 74
20240622054517 54 179 8.0 12.0 0.00 0.38 0.38 78
20240622053523 55 192 3.0 5.0 0.00 0.38 0.38 77
20240622052520 55 233 4.0 7.0 0.00 0.38 0.38 77
20240622051520 55 161 5.0 8.0 0.00 0.38 0.38 78
20240622050540 54 194 7.0 9.0 0.00 0.38 0.38 78
20240622045520 54 183 6.0 8.0 0.00 0.38 0.38 80
20240622044521 53 207 4.0 6.0 0.00 0.38 0.38 82
20240622043521 54 207 4.0 6.0 0.00 0.38 0.38 80
20240622042521 54 143 4.0 5.0 0.00 0.38 0.38 78
20240622041522 55 175 4.0 6.0 0.00 0.38 0.38 74
20240622040525 55 82 3.0 4.0 0.00 0.38 0.38 75
20240622035542 55 85 6.0 10.0 0.00 0.38 0.38 78
20240622034525 55 350 3.0 5.0 0.00 0.38 0.38 77
20240622033522 56 353 5.0 8.0 0.00 0.38 0.38 77
20240622032539 57 355 6.0 11.0 0.00 0.38 0.38 76
20240622031517 58 3 7.0 12.0 0.00 0.38 0.38 76
20240622030523 58 19 3.0 7.0 0.00 0.38 0.38 80
20240622025523 57 318 2.0 5.0 0.00 0.38 0.38 78
20240622024526 57 162 2.0 3.0 0.00 0.38 0.38 79
20240622023517 57 151 3.0 6.0 0.00 0.38 0.38 79
20240622022517 56 170 7.0 9.0 0.00 0.38 0.38 80
20240622021518 56 167 7.0 10.0 0.00 0.38 0.38 81
20240622020517 56 173 3.0 7.0 0.00 0.38 0.38 81
20240622015518 56 145 3.0 6.0 0.00 0.38 0.38 82
20240622014518 57 185 6.0 9.0 0.00 0.38 0.38 82
20240622013518 58 187 8.0 11.0 0.00 0.38 0.38 80
20240622012518 58 161 7.0 10.0 0.00 0.38 0.38 80
20240622011518 58 158 5.0 8.0 0.00 0.38 0.38 80
20240622010525 58 158 7.0 10.0 0.00 0.38 0.38 81
20240622005519 57 0.0 0.0 0.01 0.38 0.38 80
20240622004519 57 154 7.0 9.0 0.06 0.38 0.38 80
20240622003519 56 0.0 0.0 0.13 0.38 0.38 82
20240622002520 55 153 9.0 11.0 0.21 0.38 0.38 84
20240622001519 55 171 11.0 15.0 0.21 0.38 0.38 83
20240622000519 56 136 5.0 9.0 0.21 0.38 0.38 82
20240621235520 56 122 3.0 6.0 0.20 0.37 0.37 80
20240621234529 57 16 2.0 3.0 0.15 0.32 0.32 80
20240621233517 62 305 6.0 10.0 0.08 0.25 0.25 75
20240621232520 65 298 5.0 8.0 0.00 0.21 0.17 62
20240621231520 66 208 6.0 11.0 0.00 0.33 0.17 58
20240621230541 67 200 7.0 9.0 0.00 0.33 0.17 56
20240621225518 69 192 9.0 13.0 0.00 0.33 0.17 55
20240621224521 73 172 2.0 6.0 0.00 0.33 0.17 44
20240621223530 73 280 2.0 4.0 0.00 0.33 0.17 42
20240621222531 72 268 1.0 3.0 0.00 0.33 0.17 43
20240621221521 70 171 3.0 7.0 0.00 0.33 0.17 49
20240621220539 70 196 5.0 10.0 0.00 0.33 0.17 50
20240621215522 70 202 5.0 9.0 0.00 0.33 0.17 51
20240621214522 70 189 5.0 8.0 0.00 0.33 0.17 50
20240621213522 68 168 3.0 7.0 0.00 0.33 0.17 49
20240621212531 67 154 2.0 4.0 0.00 0.33 0.17 52
20240621211523 67 93 3.0 5.0 0.00 0.33 0.17 53
20240621210517 66 143 2.0 3.0 0.00 0.34 0.17 53
20240621205517 66 79 5.0 8.0 0.00 0.34 0.17 54
20240621204517 68 43 7.0 10.0 0.00 0.34 0.17 52
20240621203523 69 61 4.0 8.0 0.00 0.36 0.17 50
20240621202517 74 333 10.0 19.0 0.00 0.36 0.17 44
20240621201518 73 252 10.0 18.0 0.00 0.36 0.17 45
20240621200518 74 236 11.0 20.0 0.00 0.36 0.17 44
20240621195518 73 238 12.0 21.0 0.00 0.36 0.17 46
20240621194516 73 234 12.0 23.0 0.00 0.36 0.17 46
20240621193519 73 228 11.0 18.0 0.00 0.36 0.17 46
20240621192519 72 235 11.0 19.0 0.00 0.36 0.17 47
20240621191539 72 240 9.0 16.0 0.00 0.36 0.17 46
20240621190537 71 233 12.0 19.0 0.00 0.36 0.17 47
20240621185517 71 231 13.0 21.0 0.00 0.36 0.17 48
20240621184517 71 233 10.0 17.0 0.00 0.36 0.17 47